sensor_id;sensor_type;location;lat;lon;timestamp;pressure;altitude;pressure_sealevel;temperature;humidity
51926;BME280;37952;51.938;15.480;2023-08-31T00:00:16;98866.78;;;15.96;69.52
51926;BME280;37952;51.938;15.480;2023-08-31T00:03:39;98861.15;;;15.94;69.83
51926;BME280;37952;51.938;15.480;2023-08-31T00:06:42;98863.45;;;15.96;69.93
51926;BME280;37952;51.938;15.480;2023-08-31T00:09:47;98859.55;;;15.96;70.11
51926;BME280;37952;51.938;15.480;2023-08-31T00:12:50;98858.41;;;15.95;69.86
51926;BME280;37952;51.938;15.480;2023-08-31T00:15:55;98860.81;;;15.90;70.06
51926;BME280;37952;51.938;15.480;2023-08-31T00:19:01;98856.16;;;15.85;70.35
51926;BME280;37952;51.938;15.480;2023-08-31T00:22:04;98853.30;;;15.83;70.39
51926;BME280;37952;51.938;15.480;2023-08-31T00:25:07;98856.17;;;15.79;70.46
51926;BME280;37952;51.938;15.480;2023-08-31T00:28:11;98850.27;;;15.76;70.36
51926;BME280;37952;51.938;15.480;2023-08-31T00:31:13;98852.04;;;15.72;70.50
51926;BME280;37952;51.938;15.480;2023-08-31T00:34:16;98848.45;;;15.71;70.78
51926;BME280;37952;51.938;15.480;2023-08-31T00:37:20;98848.06;;;15.69;71.01
51926;BME280;37952;51.938;15.480;2023-08-31T00:40:24;98847.70;;;15.69;70.82
51926;BME280;37952;51.938;15.480;2023-08-31T00:43:28;98849.24;;;15.68;70.87
51926;BME280;37952;51.938;15.480;2023-08-31T00:46:32;98846.48;;;15.64;70.89
51926;BME280;37952;51.938;15.480;2023-08-31T00:49:35;98841.95;;;15.59;71.17
51926;BME280;37952;51.938;15.480;2023-08-31T00:52:38;98843.27;;;15.56;71.22
51926;BME280;37952;51.938;15.480;2023-08-31T00:55:41;98847.01;;;15.52;71.37
51926;BME280;37952;51.938;15.480;2023-08-31T00:58:44;98844.05;;;15.46;71.27
51926;BME280;37952;51.938;15.480;2023-08-31T01:02:11;98841.70;;;15.45;71.52
51926;BME280;37952;51.938;15.480;2023-08-31T01:08:52;98839.88;;;15.38;71.53
51926;BME280;37952;51.938;15.480;2023-08-31T01:12:09;98841.70;;;15.31;71.63
51926;BME280;37952;51.938;15.480;2023-08-31T01:15:14;98840.20;;;15.29;71.75
51926;BME280;37952;51.938;15.480;2023-08-31T01:18:21;98840.63;;;15.28;71.90
51926;BME280;37952;51.938;15.480;2023-08-31T01:21:27;98839.50;;;15.29;71.80
51926;BME280;37952;51.938;15.480;2023-08-31T01:24:33;98844.46;;;15.27;71.71
51926;BME280;37952;51.938;15.480;2023-08-31T01:27:37;98845.19;;;15.25;71.81
51926;BME280;37952;51.938;15.480;2023-08-31T01:30:40;98847.02;;;15.26;71.79
51926;BME280;37952;51.938;15.480;2023-08-31T01:33:43;98850.49;;;15.27;71.63
51926;BME280;37952;51.938;15.480;2023-08-31T01:36:50;98851.36;;;15.27;71.50
51926;BME280;37952;51.938;15.480;2023-08-31T01:40:56;98847.27;;;15.27;71.54
51926;BME280;37952;51.938;15.480;2023-08-31T01:43:32;98852.11;;;15.28;71.68
51926;BME280;37952;51.938;15.480;2023-08-31T01:46:36;98845.36;;;15.29;71.44
51926;BME280;37952;51.938;15.480;2023-08-31T01:49:39;98840.09;;;15.28;71.46
51926;BME280;37952;51.938;15.480;2023-08-31T01:52:42;98838.82;;;15.24;71.19
51926;BME280;37952;51.938;15.480;2023-08-31T01:55:45;98847.94;;;15.22;71.41
51926;BME280;37952;51.938;15.480;2023-08-31T01:58:48;98846.18;;;15.21;71.47
51926;BME280;37952;51.938;15.480;2023-08-31T02:01:51;98842.00;;;15.21;71.49
51926;BME280;37952;51.938;15.480;2023-08-31T02:04:54;98846.41;;;15.19;71.22
51926;BME280;37952;51.938;15.480;2023-08-31T02:07:58;98847.29;;;15.18;71.51
51926;BME280;37952;51.938;15.480;2023-08-31T02:11:01;98846.52;;;15.18;71.31
51926;BME280;37952;51.938;15.480;2023-08-31T02:14:04;98848.47;;;15.16;71.26
51926;BME280;37952;51.938;15.480;2023-08-31T02:17:08;98842.21;;;15.15;71.10
51926;BME280;37952;51.938;15.480;2023-08-31T02:20:11;98846.01;;;15.14;71.16
51926;BME280;37952;51.938;15.480;2023-08-31T02:23:14;98843.10;;;15.13;71.19
51926;BME280;37952;51.938;15.480;2023-08-31T02:26:16;98847.40;;;15.10;71.12
51926;BME280;37952;51.938;15.480;2023-08-31T02:29:20;98855.89;;;15.07;71.05
51926;BME280;37952;51.938;15.480;2023-08-31T02:32:22;98855.95;;;15.06;71.23
51926;BME280;37952;51.938;15.480;2023-08-31T02:35:25;98853.05;;;15.07;71.11
51926;BME280;37952;51.938;15.480;2023-08-31T02:38:28;98857.58;;;15.08;71.23
51926;BME280;37952;51.938;15.480;2023-08-31T02:41:31;98852.82;;;15.06;71.22
51926;BME280;37952;51.938;15.480;2023-08-31T02:44:34;98856.34;;;15.02;71.08
51926;BME280;37952;51.938;15.480;2023-08-31T02:47:37;98853.40;;;14.99;71.20
51926;BME280;37952;51.938;15.480;2023-08-31T02:50:40;98855.81;;;14.98;71.25
51926;BME280;37952;51.938;15.480;2023-08-31T02:53:43;98854.30;;;14.97;71.18
51926;BME280;37952;51.938;15.480;2023-08-31T02:56:46;98852.23;;;14.95;71.14
51926;BME280;37952;51.938;15.480;2023-08-31T02:59:50;98855.59;;;14.93;71.23
51926;BME280;37952;51.938;15.480;2023-08-31T03:02:53;98850.52;;;14.94;71.33
51926;BME280;37952;51.938;15.480;2023-08-31T03:05:56;98847.80;;;14.95;71.37
51926;BME280;37952;51.938;15.480;2023-08-31T03:08:59;98842.38;;;14.94;71.27
51926;BME280;37952;51.938;15.480;2023-08-31T03:12:02;98842.59;;;14.95;71.34
51926;BME280;37952;51.938;15.480;2023-08-31T03:15:06;98840.49;;;14.97;71.46
51926;BME280;37952;51.938;15.480;2023-08-31T03:18:09;98845.92;;;14.96;71.40
51926;BME280;37952;51.938;15.480;2023-08-31T03:21:12;98846.33;;;14.93;71.30
51926;BME280;37952;51.938;15.480;2023-08-31T03:24:14;98845.25;;;14.90;71.46
51926;BME280;37952;51.938;15.480;2023-08-31T03:27:17;98848.90;;;14.89;71.46
51926;BME280;37952;51.938;15.480;2023-08-31T03:30:22;98848.45;;;14.88;71.50
51926;BME280;37952;51.938;15.480;2023-08-31T03:33:25;98848.83;;;14.84;71.53
51926;BME280;37952;51.938;15.480;2023-08-31T03:36:27;98852.83;;;14.79;71.71
51926;BME280;37952;51.938;15.480;2023-08-31T03:39:30;98854.86;;;14.78;71.84
51926;BME280;37952;51.938;15.480;2023-08-31T03:42:34;98855.80;;;14.77;71.90
51926;BME280;37952;51.938;15.480;2023-08-31T03:45:37;98856.52;;;14.71;71.79
51926;BME280;37952;51.938;15.480;2023-08-31T03:48:40;98854.98;;;14.66;72.00
51926;BME280;37952;51.938;15.480;2023-08-31T03:51:43;98860.80;;;14.63;72.14
51926;BME280;37952;51.938;15.480;2023-08-31T03:54:46;98862.19;;;14.59;72.06
51926;BME280;37952;51.938;15.480;2023-08-31T03:57:49;98860.86;;;14.56;72.05
51926;BME280;37952;51.938;15.480;2023-08-31T04:00:52;98872.31;;;14.53;72.23
51926;BME280;37952;51.938;15.480;2023-08-31T04:03:55;98886.06;;;14.50;72.26
51926;BME280;37952;51.938;15.480;2023-08-31T04:06:59;98887.38;;;14.48;72.44
51926;BME280;37952;51.938;15.480;2023-08-31T04:10:03;98896.37;;;14.42;72.61
51926;BME280;37952;51.938;15.480;2023-08-31T04:13:06;98897.04;;;14.39;72.78
51926;BME280;37952;51.938;15.480;2023-08-31T04:16:10;98897.34;;;14.35;72.93
51926;BME280;37952;51.938;15.480;2023-08-31T04:19:13;98903.63;;;14.34;73.03
51926;BME280;37952;51.938;15.480;2023-08-31T04:22:16;98903.67;;;14.34;72.96
51926;BME280;37952;51.938;15.480;2023-08-31T04:25:24;98907.08;;;14.33;73.30
51926;BME280;37952;51.938;15.480;2023-08-31T04:28:30;98906.10;;;14.34;73.22
51926;BME280;37952;51.938;15.480;2023-08-31T04:31:34;98905.41;;;14.34;73.40
51926;BME280;37952;51.938;15.480;2023-08-31T04:34:37;98904.23;;;14.28;73.46
51926;BME280;37952;51.938;15.480;2023-08-31T04:37:41;98906.83;;;14.30;73.49
51926;BME280;37952;51.938;15.480;2023-08-31T04:40:44;98911.25;;;14.34;73.71
51926;BME280;37952;51.938;15.480;2023-08-31T04:43:47;98915.13;;;14.35;73.77
51926;BME280;37952;51.938;15.480;2023-08-31T04:46:53;98917.13;;;14.30;74.07
51926;BME280;37952;51.938;15.480;2023-08-31T04:49:57;98925.49;;;14.23;74.49
51926;BME280;37952;51.938;15.480;2023-08-31T04:53:02;98942.45;;;14.18;74.68
51926;BME280;37952;51.938;15.480;2023-08-31T04:56:05;98946.61;;;14.16;74.71
51926;BME280;37952;51.938;15.480;2023-08-31T05:02:25;98963.27;;;14.23;74.74
51926;BME280;37952;51.938;15.480;2023-08-31T05:05:28;98964.14;;;14.30;74.82
51926;BME280;37952;51.938;15.480;2023-08-31T05:08:31;98966.63;;;14.32;74.95
51926;BME280;37952;51.938;15.480;2023-08-31T05:11:34;98965.21;;;14.31;75.06
51926;BME280;37952;51.938;15.480;2023-08-31T05:14:37;98959.30;;;14.30;75.28
51926;BME280;37952;51.938;15.480;2023-08-31T05:17:40;98957.27;;;14.29;75.34
51926;BME280;37952;51.938;15.480;2023-08-31T05:20:46;98957.75;;;14.32;75.23
51926;BME280;37952;51.938;15.480;2023-08-31T05:23:51;98967.46;;;14.32;75.60
51926;BME280;37952;51.938;15.480;2023-08-31T05:26:53;98966.24;;;14.28;75.87
51926;BME280;37952;51.938;15.480;2023-08-31T05:29:56;98970.23;;;14.25;76.05
51926;BME280;37952;51.938;15.480;2023-08-31T05:32:59;98970.36;;;14.25;75.94
51926;BME280;37952;51.938;15.480;2023-08-31T05:36:02;98971.73;;;14.26;76.30
51926;BME280;37952;51.938;15.480;2023-08-31T05:39:06;98980.62;;;14.24;76.48
51926;BME280;37952;51.938;15.480;2023-08-31T05:42:10;98982.20;;;14.28;76.49
51926;BME280;37952;51.938;15.480;2023-08-31T05:45:13;98989.41;;;14.38;76.48
51926;BME280;37952;51.938;15.480;2023-08-31T05:48:17;98986.76;;;14.39;76.46
51926;BME280;37952;51.938;15.480;2023-08-31T05:51:20;98985.70;;;14.38;76.57
51926;BME280;37952;51.938;15.480;2023-08-31T05:54:23;98983.10;;;14.44;76.37
51926;BME280;37952;51.938;15.480;2023-08-31T05:57:26;98986.27;;;14.52;76.25
51926;BME280;37952;51.938;15.480;2023-08-31T06:00:30;98987.60;;;14.51;76.30
51926;BME280;37952;51.938;15.480;2023-08-31T06:03:38;98996.15;;;14.51;76.31
51926;BME280;37952;51.938;15.480;2023-08-31T06:06:41;99003.75;;;14.59;76.26
51926;BME280;37952;51.938;15.480;2023-08-31T06:09:44;99017.99;;;14.62;76.41
51926;BME280;37952;51.938;15.480;2023-08-31T06:12:47;99010.73;;;14.58;76.17
51926;BME280;37952;51.938;15.480;2023-08-31T06:15:51;99012.03;;;14.57;76.49
51926;BME280;37952;51.938;15.480;2023-08-31T06:18:53;99016.44;;;14.58;76.64
51926;BME280;37952;51.938;15.480;2023-08-31T06:21:58;99025.03;;;14.61;76.47
51926;BME280;37952;51.938;15.480;2023-08-31T06:25:01;99018.89;;;14.62;76.16
51926;BME280;37952;51.938;15.480;2023-08-31T06:28:04;99019.45;;;14.60;76.37
51926;BME280;37952;51.938;15.480;2023-08-31T06:31:11;99024.30;;;14.61;76.47
51926;BME280;37952;51.938;15.480;2023-08-31T06:34:14;99032.80;;;14.64;76.44
51926;BME280;37952;51.938;15.480;2023-08-31T06:37:17;99040.46;;;14.63;76.39
51926;BME280;37952;51.938;15.480;2023-08-31T06:40:20;99041.33;;;14.65;76.41
51926;BME280;37952;51.938;15.480;2023-08-31T06:43:22;99045.65;;;14.67;76.30
51926;BME280;37952;51.938;15.480;2023-08-31T06:46:25;99047.84;;;14.68;76.33
51926;BME280;37952;51.938;15.480;2023-08-31T06:49:28;99057.52;;;14.71;76.29
51926;BME280;37952;51.938;15.480;2023-08-31T06:52:32;99056.16;;;14.70;76.31
51926;BME280;37952;51.938;15.480;2023-08-31T06:55:38;99060.80;;;14.68;76.38
51926;BME280;37952;51.938;15.480;2023-08-31T06:58:41;99065.10;;;14.71;76.32
51926;BME280;37952;51.938;15.480;2023-08-31T07:01:44;99063.02;;;14.71;76.26
51926;BME280;37952;51.938;15.480;2023-08-31T07:04:48;99068.00;;;14.72;76.26
51926;BME280;37952;51.938;15.480;2023-08-31T07:07:58;99070.73;;;14.76;76.39
51926;BME280;37952;51.938;15.480;2023-08-31T07:11:01;99071.06;;;14.78;76.32
51926;BME280;37952;51.938;15.480;2023-08-31T07:14:04;99065.11;;;14.83;75.97
51926;BME280;37952;51.938;15.480;2023-08-31T07:17:07;99063.88;;;14.88;75.95
51926;BME280;37952;51.938;15.480;2023-08-31T07:20:11;99053.77;;;14.85;75.87
51926;BME280;37952;51.938;15.480;2023-08-31T07:23:14;99051.28;;;14.90;75.97
51926;BME280;37952;51.938;15.480;2023-08-31T07:26:17;99067.10;;;14.95;75.70
51926;BME280;37952;51.938;15.480;2023-08-31T07:29:20;99071.94;;;14.98;75.47
51926;BME280;37952;51.938;15.480;2023-08-31T07:32:23;99071.45;;;15.00;75.45
51926;BME280;37952;51.938;15.480;2023-08-31T07:35:26;99072.58;;;14.97;75.39
51926;BME280;37952;51.938;15.480;2023-08-31T07:38:30;99084.70;;;14.93;75.21
51926;BME280;37952;51.938;15.480;2023-08-31T07:41:33;99082.96;;;14.82;75.50
51926;BME280;37952;51.938;15.480;2023-08-31T07:44:36;99086.80;;;14.72;75.57
51926;BME280;37952;51.938;15.480;2023-08-31T07:47:39;99100.95;;;14.77;75.41
51926;BME280;37952;51.938;15.480;2023-08-31T07:50:43;99104.56;;;14.81;75.41
51926;BME280;37952;51.938;15.480;2023-08-31T07:53:47;99107.45;;;14.86;75.42
51926;BME280;37952;51.938;15.480;2023-08-31T07:56:50;99110.73;;;14.89;75.22
51926;BME280;37952;51.938;15.480;2023-08-31T07:59:52;99111.08;;;14.87;75.09
51926;BME280;37952;51.938;15.480;2023-08-31T08:02:55;99110.23;;;14.89;74.89
51926;BME280;37952;51.938;15.480;2023-08-31T08:05:59;99109.11;;;14.95;75.08
51926;BME280;37952;51.938;15.480;2023-08-31T08:09:02;99117.44;;;14.98;74.91
51926;BME280;37952;51.938;15.480;2023-08-31T08:12:07;99126.59;;;14.99;74.83
51926;BME280;37952;51.938;15.480;2023-08-31T08:15:11;99131.73;;;15.03;74.73
51926;BME280;37952;51.938;15.480;2023-08-31T08:18:14;99133.64;;;15.05;74.77
51926;BME280;37952;51.938;15.480;2023-08-31T08:21:16;99130.85;;;15.13;74.83
51926;BME280;37952;51.938;15.480;2023-08-31T08:24:20;99134.86;;;15.19;74.58
51926;BME280;37952;51.938;15.480;2023-08-31T08:27:23;99136.14;;;15.21;74.28
51926;BME280;37952;51.938;15.480;2023-08-31T08:30:26;99140.25;;;15.23;74.37
51926;BME280;37952;51.938;15.480;2023-08-31T08:33:30;99139.07;;;15.34;74.39
51926;BME280;37952;51.938;15.480;2023-08-31T08:36:33;99144.68;;;15.43;74.00
51926;BME280;37952;51.938;15.480;2023-08-31T08:39:35;99152.55;;;15.46;73.75
51926;BME280;37952;51.938;15.480;2023-08-31T08:42:40;99150.89;;;15.54;73.77
51926;BME280;37952;51.938;15.480;2023-08-31T08:45:45;99158.25;;;15.69;73.65
51926;BME280;37952;51.938;15.480;2023-08-31T08:48:49;99152.08;;;15.79;73.40
51926;BME280;37952;51.938;15.480;2023-08-31T08:51:53;99147.52;;;15.86;73.10
51926;BME280;37952;51.938;15.480;2023-08-31T08:54:57;99153.52;;;15.98;72.86
51926;BME280;37952;51.938;15.480;2023-08-31T08:58:00;99154.03;;;16.02;72.30
51926;BME280;37952;51.938;15.480;2023-08-31T09:01:03;99156.04;;;16.05;71.74
51926;BME280;37952;51.938;15.480;2023-08-31T09:04:09;99150.44;;;16.05;71.81
51926;BME280;37952;51.938;15.480;2023-08-31T09:07:11;99153.23;;;16.11;71.54
51926;BME280;37952;51.938;15.480;2023-08-31T09:10:14;99158.88;;;16.13;71.19
51926;BME280;37952;51.938;15.480;2023-08-31T09:13:17;99151.37;;;16.10;70.71
51926;BME280;37952;51.938;15.480;2023-08-31T09:16:29;99148.60;;;16.13;71.22
51926;BME280;37952;51.938;15.480;2023-08-31T09:19:33;99150.84;;;16.18;70.76
51926;BME280;37952;51.938;15.480;2023-08-31T09:22:36;99154.47;;;16.25;70.75
51926;BME280;37952;51.938;15.480;2023-08-31T09:25:48;99154.70;;;16.31;70.99
51926;BME280;37952;51.938;15.480;2023-08-31T09:28:52;99153.80;;;16.37;70.61
51926;BME280;37952;51.938;15.480;2023-08-31T09:31:56;99166.70;;;16.29;69.93
51926;BME280;37952;51.938;15.480;2023-08-31T09:35:00;99160.96;;;16.21;69.64
51926;BME280;37952;51.938;15.480;2023-08-31T09:38:19;99160.74;;;16.26;69.92
51926;BME280;37952;51.938;15.480;2023-08-31T09:41:22;99158.77;;;16.34;69.58
51926;BME280;37952;51.938;15.480;2023-08-31T09:44:25;99163.48;;;16.34;69.75
51926;BME280;37952;51.938;15.480;2023-08-31T09:47:28;99164.64;;;16.39;69.46
51926;BME280;37952;51.938;15.480;2023-08-31T09:50:33;99160.46;;;16.42;69.28
51926;BME280;37952;51.938;15.480;2023-08-31T09:53:37;99168.55;;;16.41;68.85
51926;BME280;37952;51.938;15.480;2023-08-31T09:56:42;99170.96;;;16.46;68.61
51926;BME280;37952;51.938;15.480;2023-08-31T09:59:46;99174.76;;;16.51;68.72
51926;BME280;37952;51.938;15.480;2023-08-31T10:02:53;99192.13;;;16.48;68.61
51926;BME280;37952;51.938;15.480;2023-08-31T10:05:58;99201.34;;;16.29;68.65
51926;BME280;37952;51.938;15.480;2023-08-31T10:09:03;99196.84;;;16.06;69.73
51926;BME280;37952;51.938;15.480;2023-08-31T10:12:07;99195.77;;;15.93;69.84
51926;BME280;37952;51.938;15.480;2023-08-31T10:15:11;99195.87;;;15.76;70.02
51926;BME280;37952;51.938;15.480;2023-08-31T10:18:15;99198.80;;;15.63;70.53
51926;BME280;37952;51.938;15.480;2023-08-31T10:21:18;99208.14;;;15.60;70.26
51926;BME280;37952;51.938;15.480;2023-08-31T10:28:16;99206.55;;;15.48;69.59
51926;BME280;37952;51.938;15.480;2023-08-31T10:31:21;99201.41;;;15.26;68.78
51926;BME280;37952;51.938;15.480;2023-08-31T10:34:35;99205.03;;;15.21;69.52
51926;BME280;37952;51.938;15.480;2023-08-31T10:37:40;99199.80;;;15.28;69.78
51926;BME280;37952;51.938;15.480;2023-08-31T10:44:26;99205.18;;;15.45;69.91
51926;BME280;37952;51.938;15.480;2023-08-31T10:47:41;99201.69;;;15.55;70.09
51926;BME280;37952;51.938;15.480;2023-08-31T10:50:47;99206.04;;;15.69;70.01
51926;BME280;37952;51.938;15.480;2023-08-31T10:53:50;99209.05;;;15.81;70.05
51926;BME280;37952;51.938;15.480;2023-08-31T11:00:46;99215.16;;;15.89;69.96
51926;BME280;37952;51.938;15.480;2023-08-31T11:03:57;99205.04;;;15.94;70.10
51926;BME280;37952;51.938;15.480;2023-08-31T11:07:19;99203.39;;;15.99;69.99
51926;BME280;37952;51.938;15.480;2023-08-31T11:10:26;99197.64;;;15.88;69.47
51926;BME280;37952;51.938;15.480;2023-08-31T11:13:32;99193.23;;;15.83;69.93
51926;BME280;37952;51.938;15.480;2023-08-31T11:16:38;99194.35;;;15.91;70.25
51926;BME280;37952;51.938;15.480;2023-08-31T11:19:41;99185.84;;;16.01;70.32
51926;BME280;37952;51.938;15.480;2023-08-31T11:22:46;99183.70;;;16.14;70.38
51926;BME280;37952;51.938;15.480;2023-08-31T11:25:50;99184.80;;;16.29;69.85
51926;BME280;37952;51.938;15.480;2023-08-31T11:28:55;99175.30;;;16.47;69.91
51926;BME280;37952;51.938;15.480;2023-08-31T11:31:58;99185.30;;;16.64;69.53
51926;BME280;37952;51.938;15.480;2023-08-31T11:35:05;99190.70;;;16.67;69.29
51926;BME280;37952;51.938;15.480;2023-08-31T11:38:09;99198.35;;;16.65;69.16
51926;BME280;37952;51.938;15.480;2023-08-31T11:41:12;99199.12;;;16.57;68.85
51926;BME280;37952;51.938;15.480;2023-08-31T11:44:15;99204.45;;;16.49;69.02
51926;BME280;37952;51.938;15.480;2023-08-31T11:47:20;99202.17;;;16.49;69.39
51926;BME280;37952;51.938;15.480;2023-08-31T11:50:23;99212.17;;;16.48;69.38
51926;BME280;37952;51.938;15.480;2023-08-31T11:53:27;99210.23;;;16.44;69.32
51926;BME280;37952;51.938;15.480;2023-08-31T11:56:58;99216.02;;;16.39;69.01
51926;BME280;37952;51.938;15.480;2023-08-31T12:00:02;99216.83;;;16.37;69.13
51926;BME280;37952;51.938;15.480;2023-08-31T12:03:08;99216.09;;;16.39;69.19
51926;BME280;37952;51.938;15.480;2023-08-31T12:06:15;99216.79;;;16.46;69.07
51926;BME280;37952;51.938;15.480;2023-08-31T12:09:20;99215.78;;;16.55;68.78
51926;BME280;37952;51.938;15.480;2023-08-31T12:12:23;99214.40;;;16.55;68.69
51926;BME280;37952;51.938;15.480;2023-08-31T12:15:32;99215.30;;;16.51;68.57
51926;BME280;37952;51.938;15.480;2023-08-31T12:18:37;99215.14;;;16.45;68.23
51926;BME280;37952;51.938;15.480;2023-08-31T12:21:42;99214.36;;;16.44;68.25
51926;BME280;37952;51.938;15.480;2023-08-31T12:24:45;99215.42;;;16.46;68.12
51926;BME280;37952;51.938;15.480;2023-08-31T12:27:48;99223.80;;;16.46;68.00
51926;BME280;37952;51.938;15.480;2023-08-31T12:30:54;99230.00;;;16.44;68.08
51926;BME280;37952;51.938;15.480;2023-08-31T12:33:59;99233.35;;;16.41;67.99
51926;BME280;37952;51.938;15.480;2023-08-31T12:37:03;99233.77;;;16.38;68.04
51926;BME280;37952;51.938;15.480;2023-08-31T12:40:07;99233.32;;;16.35;68.07
51926;BME280;37952;51.938;15.480;2023-08-31T12:43:12;99235.29;;;16.33;68.30
51926;BME280;37952;51.938;15.480;2023-08-31T12:46:15;99241.79;;;16.26;68.26
51926;BME280;37952;51.938;15.480;2023-08-31T12:49:19;99234.73;;;16.35;68.55
51926;BME280;37952;51.938;15.480;2023-08-31T12:52:23;99229.36;;;16.68;67.96
51926;BME280;37952;51.938;15.480;2023-08-31T12:55:26;99218.57;;;16.98;67.13
51926;BME280;37952;51.938;15.480;2023-08-31T12:58:29;99223.05;;;17.22;67.13
51926;BME280;37952;51.938;15.480;2023-08-31T13:01:32;99226.83;;;17.42;66.84
51926;BME280;37952;51.938;15.480;2023-08-31T13:04:36;99229.29;;;17.61;66.77
51926;BME280;37952;51.938;15.480;2023-08-31T13:07:42;99220.93;;;17.84;66.60
51926;BME280;37952;51.938;15.480;2023-08-31T13:10:54;99221.40;;;18.11;65.99
51926;BME280;37952;51.938;15.480;2023-08-31T13:13:57;99221.12;;;18.38;65.23
51926;BME280;37952;51.938;15.480;2023-08-31T13:17:00;99218.41;;;18.59;64.89
51926;BME280;37952;51.938;15.480;2023-08-31T13:20:03;99218.73;;;18.59;63.80
51926;BME280;37952;51.938;15.480;2023-08-31T13:23:07;99227.44;;;18.51;63.34
51926;BME280;37952;51.938;15.480;2023-08-31T13:26:10;99226.95;;;18.58;63.57
51926;BME280;37952;51.938;15.480;2023-08-31T13:29:13;99230.23;;;18.62;63.13
51926;BME280;37952;51.938;15.480;2023-08-31T13:32:16;99226.65;;;18.68;63.27
51926;BME280;37952;51.938;15.480;2023-08-31T13:35:19;99228.79;;;18.74;63.02
51926;BME280;37952;51.938;15.480;2023-08-31T13:38:22;99229.91;;;18.88;62.14
51926;BME280;37952;51.938;15.480;2023-08-31T13:41:25;99224.23;;;19.07;61.07
51926;BME280;37952;51.938;15.480;2023-08-31T13:44:28;99227.55;;;18.90;56.79
51926;BME280;37952;51.938;15.480;2023-08-31T13:47:31;99228.83;;;18.77;59.54
51926;BME280;37952;51.938;15.480;2023-08-31T13:50:33;99215.48;;;18.96;58.90
51926;BME280;37952;51.938;15.480;2023-08-31T13:53:37;99227.39;;;19.03;58.11
51926;BME280;37952;51.938;15.480;2023-08-31T13:56:40;99228.25;;;19.08;58.79
51926;BME280;37952;51.938;15.480;2023-08-31T13:59:44;99233.20;;;19.17;57.85
51926;BME280;37952;51.938;15.480;2023-08-31T14:02:47;99233.55;;;19.20;57.98
51926;BME280;37952;51.938;15.480;2023-08-31T14:05:50;99226.27;;;19.38;59.41
51926;BME280;37952;51.938;15.480;2023-08-31T14:08:52;99231.64;;;19.59;59.47
51926;BME280;37952;51.938;15.480;2023-08-31T14:11:56;99223.49;;;19.58;58.64
51926;BME280;37952;51.938;15.480;2023-08-31T14:14:59;99220.10;;;19.24;56.75
51926;BME280;37952;51.938;15.480;2023-08-31T14:18:06;99224.64;;;19.01;58.25
51926;BME280;37952;51.938;15.480;2023-08-31T14:21:15;99232.66;;;18.96;58.33
51926;BME280;37952;51.938;15.480;2023-08-31T14:24:18;99241.14;;;18.83;58.33
51926;BME280;37952;51.938;15.480;2023-08-31T14:27:21;99242.83;;;18.52;59.18
51926;BME280;37952;51.938;15.480;2023-08-31T14:30:25;99248.11;;;18.12;60.23
51926;BME280;37952;51.938;15.480;2023-08-31T14:33:29;99245.20;;;17.76;61.68
51926;BME280;37952;51.938;15.480;2023-08-31T14:36:32;99239.06;;;17.50;63.57
51926;BME280;37952;51.938;15.480;2023-08-31T14:39:35;99237.13;;;17.37;65.21
51926;BME280;37952;51.938;15.480;2023-08-31T14:42:37;99244.77;;;17.42;64.58
51926;BME280;37952;51.938;15.480;2023-08-31T14:45:40;99246.52;;;17.57;64.47
51926;BME280;37952;51.938;15.480;2023-08-31T14:48:43;99245.80;;;17.94;64.01
51926;BME280;37952;51.938;15.480;2023-08-31T14:51:46;99252.45;;;18.06;63.60
51926;BME280;37952;51.938;15.480;2023-08-31T14:54:49;99256.36;;;18.13;63.88
51926;BME280;37952;51.938;15.480;2023-08-31T14:57:54;99264.27;;;18.22;64.05
51926;BME280;37952;51.938;15.480;2023-08-31T15:00:57;99263.43;;;18.07;64.67
51926;BME280;37952;51.938;15.480;2023-08-31T15:04:00;99265.75;;;17.97;64.88
51926;BME280;37952;51.938;15.480;2023-08-31T15:07:03;99266.66;;;17.81;65.32
51926;BME280;37952;51.938;15.480;2023-08-31T15:10:06;99271.48;;;17.72;65.63
51926;BME280;37952;51.938;15.480;2023-08-31T15:13:09;99266.70;;;17.64;66.05
51926;BME280;37952;51.938;15.480;2023-08-31T15:16:11;99272.09;;;17.58;66.65
51926;BME280;37952;51.938;15.480;2023-08-31T15:19:14;99280.40;;;17.44;67.01
51926;BME280;37952;51.938;15.480;2023-08-31T15:22:17;99287.92;;;17.36;67.29
51926;BME280;37952;51.938;15.480;2023-08-31T15:25:21;99288.68;;;17.32;66.81
51926;BME280;37952;51.938;15.480;2023-08-31T15:28:23;99295.88;;;17.33;66.47
51926;BME280;37952;51.938;15.480;2023-08-31T15:31:26;99302.06;;;17.30;66.03
51926;BME280;37952;51.938;15.480;2023-08-31T15:34:29;99302.57;;;17.34;65.74
51926;BME280;37952;51.938;15.480;2023-08-31T15:37:33;99287.60;;;17.53;65.55
51926;BME280;37952;51.938;15.480;2023-08-31T15:40:36;99285.99;;;17.82;64.72
51926;BME280;37952;51.938;15.480;2023-08-31T15:43:39;99296.69;;;17.88;62.94
51926;BME280;37952;51.938;15.480;2023-08-31T15:46:42;99298.14;;;17.87;62.70
51926;BME280;37952;51.938;15.480;2023-08-31T15:49:46;99297.55;;;17.82;62.49
51926;BME280;37952;51.938;15.480;2023-08-31T15:52:49;99293.14;;;17.89;63.08
51926;BME280;37952;51.938;15.480;2023-08-31T15:55:52;99290.76;;;17.97;62.39
51926;BME280;37952;51.938;15.480;2023-08-31T15:58:55;99288.23;;;17.97;63.10
51926;BME280;37952;51.938;15.480;2023-08-31T16:02:00;99288.20;;;18.12;62.84
51926;BME280;37952;51.938;15.480;2023-08-31T16:05:08;99282.28;;;18.18;61.66
51926;BME280;37952;51.938;15.480;2023-08-31T16:08:12;99285.77;;;18.15;60.23
51926;BME280;37952;51.938;15.480;2023-08-31T16:11:17;99292.55;;;18.05;59.51
51926;BME280;37952;51.938;15.480;2023-08-31T16:14:25;99295.52;;;17.87;59.50
51926;BME280;37952;51.938;15.480;2023-08-31T16:17:27;99303.64;;;17.69;60.12
51926;BME280;37952;51.938;15.480;2023-08-31T16:20:30;99303.80;;;17.45;60.08